Terminal Aerodrome Forecast
Issued by NWS

Home | Current Version | Previous Version | Graphics & Text | Print | Product List | Glossary On
Versions: 1 2 3 4 5 6 7 8 9 10 11 12 13 14 15 16 17
000
FTUS42 KMHX 211100
TAFOAJ
TAF
KOAJ 211130Z 2112/2212 33010KT P6SM OVC006
     FM211500 34010G18KT P6SM OVC015
     FM211600 30010G18KT P6SM BKN100
     FM212200 21005KT P6SM SCT100
      AMD LTD TO CLD VIS AND WIND=

USA.gov is the U.S. government's official web portal to all federal, state and local government web resources and services.